Time;durP1;ratioP1;P1;durP2;ratioP2;P2;SDS_P1;SDS_P2;PMS_P1;PMS_P2;Temp;Humidity;BMP_temperature;BMP_pressure;BME280_temperature;BME280_humidity;BME280_pressure;Samples;Min_cycle;Max_cycle;Signal;HPM_P1;HPM_P2
2023/06/09 00:02:27;;;;;;;10.40;3.50;;;;;;;;;;5012079;28;20342;-45
2023/06/09 00:04:56;;;;;;;10.90;4.03;;;;;;;;;;4989856;28;20060;-45
2023/06/09 00:07:27;;;;;;;11.02;3.70;;;;;;;;;;5014860;28;20044;-45
2023/06/09 00:09:54;;;;;;;9.70;3.30;;;;;;;;;;5012301;28;20048;-46
2023/06/09 00:12:23;;;;;;;10.88;3.67;;;;;;;;;;5019461;28;20048;-48
2023/06/09 00:14:51;;;;;;;9.93;3.50;;;;;;;;;;5023421;28;20256;-46
2023/06/09 00:17:19;;;;;;;10.67;3.77;;;;;;;;;;5027311;28;20486;-47
2023/06/09 00:19:47;;;;;;;13.55;3.63;;;;;;;;;;5014733;28;20584;-46
2023/06/09 00:22:15;;;;;;;12.70;3.85;;;;;;;;;;5010195;28;20887;-48
2023/06/09 00:24:44;;;;;;;13.18;3.75;;;;;;;;;;5031548;28;20419;-46
2023/06/09 00:27:14;;;;;;;10.57;3.35;;;;;;;;;;5012753;28;20037;-43
2023/06/09 00:29:43;;;;;;;11.90;3.47;;;;;;;;;;5018620;28;20047;-45
2023/06/09 00:32:12;;;;;;;13.10;3.75;;;;;;;;;;5000314;28;20410;-48
2023/06/09 00:34:40;;;;;;;11.13;3.83;;;;;;;;;;5023852;28;20037;-46
2023/06/09 00:37:08;;;;;;;10.18;4.18;;;;;;;;;;5020032;28;20071;-47
2023/06/09 00:39:35;;;;;;;10.75;4.35;;;;;;;;;;5027815;28;20035;-44
2023/06/09 00:42:03;;;;;;;8.90;3.57;;;;;;;;;;5013074;28;21475;-45
2023/06/09 00:44:31;;;;;;;12.25;4.15;;;;;;;;;;5022917;28;20043;-46
2023/06/09 00:47:00;;;;;;;11.85;4.00;;;;;;;;;;5017464;28;20324;-46
2023/06/09 00:49:28;;;;;;;11.10;5.35;;;;;;;;;;5022947;28;20124;-45
2023/06/09 00:51:57;;;;;;;11.23;4.32;;;;;;;;;;5015740;28;20502;-44
2023/06/09 00:54:25;;;;;;;10.60;4.40;;;;;;;;;;5025190;28;20136;-45
2023/06/09 00:56:55;;;;;;;13.73;4.97;;;;;;;;;;5011766;28;20052;-47
2023/06/09 00:59:23;;;;;;;12.55;4.90;;;;;;;;;;5021688;28;20061;-45
2023/06/09 01:01:51;;;;;;;13.63;5.13;;;;;;;;;;5025891;28;20053;-44
2023/06/09 01:04:20;;;;;;;13.60;5.07;;;;;;;;;;5008817;28;20067;-45
2023/06/09 01:06:56;;;;;;;13.00;4.40;;;;;;;;;;5020845;28;20139;-44
2023/06/09 01:09:26;;;;;;;12.05;4.75;;;;;;;;;;5012150;28;20041;-45
2023/06/09 01:11:59;;;;;;;11.30;4.70;;;;;;;;;;5015895;28;20524;-44
2023/06/09 01:14:30;;;;;;;12.52;4.78;;;;;;;;;;5012418;28;20375;-47
2023/06/09 01:17:02;;;;;;;13.82;5.10;;;;;;;;;;5012610;28;20033;-45
2023/06/09 01:19:33;;;;;;;10.50;4.60;;;;;;;;;;5016810;28;20052;-48
2023/06/09 01:22:02;;;;;;;12.90;5.35;;;;;;;;;;5010743;28;20387;-46
2023/06/09 01:24:35;;;;;;;16.15;5.00;;;;;;;;;;5001067;28;20518;-45
2023/06/09 01:27:05;;;;;;;12.73;5.03;;;;;;;;;;4978652;28;20041;-45
2023/06/09 01:29:33;;;;;;;15.85;5.43;;;;;;;;;;5020719;28;20048;-48
2023/06/09 01:32:03;;;;;;;14.37;5.33;;;;;;;;;;5016443;28;20045;-45
2023/06/09 01:34:31;;;;;;;16.38;5.43;;;;;;;;;;5014384;28;20033;-44
2023/06/09 01:36:59;;;;;;;14.30;5.75;;;;;;;;;;5020399;28;20032;-44
2023/06/09 01:39:27;;;;;;;12.23;5.60;;;;;;;;;;5022118;28;20052;-45
2023/06/09 01:41:56;;;;;;;17.85;5.28;;;;;;;;;;5012969;28;20411;-44
2023/06/09 01:44:25;;;;;;;18.73;5.70;;;;;;;;;;5019697;28;20048;-45
2023/06/09 01:46:52;;;;;;;15.68;5.13;;;;;;;;;;4993836;28;20044;-45
2023/06/09 01:49:23;;;;;;;17.05;5.55;;;;;;;;;;5022609;28;20045;-46
2023/06/09 01:51:52;;;;;;;12.07;5.20;;;;;;;;;;5013102;28;20412;-43
2023/06/09 01:54:23;;;;;;;13.55;5.55;;;;;;;;;;5009719;28;20041;-45
2023/06/09 01:56:56;;;;;;;17.37;5.70;;;;;;;;;;5022527;28;20045;-45
2023/06/09 01:59:27;;;;;;;15.32;6.13;;;;;;;;;;5001485;28;20051;-45
2023/06/09 02:01:57;;;;;;;12.60;5.25;;;;;;;;;;5019151;28;20041;-46
2023/06/09 02:04:26;;;;;;;12.45;5.63;;;;;;;;;;4988506;28;20057;-46
2023/06/09 02:06:53;;;;;;;13.68;5.57;;;;;;;;;;5020752;28;20037;-46
2023/06/09 02:09:22;;;;;;;16.60;6.20;;;;;;;;;;5014067;28;20064;-44
2023/06/09 02:11:50;;;;;;;19.02;5.95;;;;;;;;;;5021733;28;20120;-45
2023/06/09 02:14:18;;;;;;;15.50;6.40;;;;;;;;;;5023164;28;20952;-44
2023/06/09 02:16:48;;;;;;;18.27;6.40;;;;;;;;;;5032017;28;20064;-45
2023/06/09 02:19:18;;;;;;;16.13;6.03;;;;;;;;;;4993034;28;20065;-46
2023/06/09 02:21:46;;;;;;;12.77;5.13;;;;;;;;;;5029539;28;20041;-45
2023/06/09 02:24:19;;;;;;;13.55;5.85;;;;;;;;;;5025115;28;20124;-47
2023/06/09 02:26:50;;;;;;;16.95;5.80;;;;;;;;;;5018500;28;20040;-46
2023/06/09 02:29:18;;;;;;;14.35;6.13;;;;;;;;;;5021190;28;20040;-45
2023/06/09 02:31:45;;;;;;;19.85;6.93;;;;;;;;;;5008713;28;20056;-46
2023/06/09 02:34:15;;;;;;;18.90;6.90;;;;;;;;;;5030914;28;20041;-45
2023/06/09 02:36:44;;;;;;;19.30;7.05;;;;;;;;;;5021095;28;20132;-45
2023/06/09 02:39:13;;;;;;;17.48;5.88;;;;;;;;;;5020884;28;20044;-44
2023/06/09 02:41:41;;;;;;;15.40;6.75;;;;;;;;;;5021508;28;20124;-45
2023/06/09 02:44:09;;;;;;;15.27;6.15;;;;;;;;;;5006920;28;20041;-44
2023/06/09 02:46:39;;;;;;;18.90;6.47;;;;;;;;;;5025377;28;20132;-46
2023/06/09 02:49:07;;;;;;;17.73;6.57;;;;;;;;;;5022237;28;20052;-46
2023/06/09 02:51:37;;;;;;;18.13;7.40;;;;;;;;;;5013606;28;20044;-44
2023/06/09 02:54:05;;;;;;;16.20;6.38;;;;;;;;;;5021693;28;20503;-45
2023/06/09 02:56:33;;;;;;;23.17;6.40;;;;;;;;;;5021914;28;20098;-44
2023/06/09 02:59:02;;;;;;;15.33;6.40;;;;;;;;;;5028832;28;20041;-44
2023/06/09 03:01:34;;;;;;;14.52;6.22;;;;;;;;;;5014715;28;20041;-45
2023/06/09 03:04:06;;;;;;;18.33;7.28;;;;;;;;;;5026669;28;20045;-45
2023/06/09 03:06:36;;;;;;;17.35;6.97;;;;;;;;;;5026300;28;20120;-44
2023/06/09 03:09:04;;;;;;;14.23;6.50;;;;;;;;;;5019274;28;20055;-44
2023/06/09 03:11:32;;;;;;;18.67;6.47;;;;;;;;;;5023298;28;20454;-46
2023/06/09 03:14:00;;;;;;;15.93;6.70;;;;;;;;;;4999113;28;20292;-45
2023/06/09 03:16:28;;;;;;;18.20;6.45;;;;;;;;;;5014257;28;20121;-48
2023/06/09 03:18:56;;;;;;;19.73;6.85;;;;;;;;;;5019320;28;20045;-45
2023/06/09 03:21:24;;;;;;;19.48;6.90;;;;;;;;;;5018958;28;20053;-44
2023/06/09 03:23:53;;;;;;;16.90;6.27;;;;;;;;;;5021580;28;20124;-44
2023/06/09 03:26:21;;;;;;;17.73;7.50;;;;;;;;;;5019942;28;20037;-47
2023/06/09 03:28:49;;;;;;;21.83;6.43;;;;;;;;;;5001121;28;20033;-46
2023/06/09 03:31:17;;;;;;;20.95;6.60;;;;;;;;;;5021593;28;20033;-47
2023/06/09 03:33:44;;;;;;;17.00;6.55;;;;;;;;;;5019323;28;20130;-47
2023/06/09 03:36:12;;;;;;;17.87;7.23;;;;;;;;;;5017368;28;20041;-44
2023/06/09 03:38:41;;;;;;;15.40;6.18;;;;;;;;;;5029155;28;20041;-45
2023/06/09 03:41:10;;;;;;;19.23;5.93;;;;;;;;;;5000761;28;20033;-46
2023/06/09 03:43:37;;;;;;;15.18;6.85;;;;;;;;;;5027803;28;20048;-44
2023/06/09 03:46:05;;;;;;;18.02;6.88;;;;;;;;;;5014756;28;20041;-44
2023/06/09 03:48:33;;;;;;;14.10;5.80;;;;;;;;;;5017836;28;20076;-44
2023/06/09 03:51:02;;;;;;;17.83;6.70;;;;;;;;;;4992919;28;20751;-44
2023/06/09 03:53:29;;;;;;;16.35;6.63;;;;;;;;;;5019467;28;20049;-44
2023/06/09 03:55:58;;;;;;;17.65;5.88;;;;;;;;;;5017000;28;20045;-44
2023/06/09 03:58:28;;;;;;;19.52;6.20;;;;;;;;;;5028532;28;20025;-44
2023/06/09 04:00:56;;;;;;;17.07;6.37;;;;;;;;;;5016328;28;20051;-45
2023/06/09 04:03:24;;;;;;;15.70;6.25;;;;;;;;;;5022286;28;20040;-44
2023/06/09 04:05:52;;;;;;;16.25;5.97;;;;;;;;;;5015975;28;20052;-45
2023/06/09 04:08:22;;;;;;;17.58;6.32;;;;;;;;;;5034466;28;20064;-44
2023/06/09 04:10:50;;;;;;;17.35;6.10;;;;;;;;;;5006897;28;20049;-44
2023/06/09 04:13:18;;;;;;;15.67;6.10;;;;;;;;;;5009788;28;20479;-44
2023/06/09 04:15:47;;;;;;;17.00;6.30;;;;;;;;;;4996133;28;20037;-44
2023/06/09 04:18:15;;;;;;;17.52;6.45;;;;;;;;;;4994650;28;20515;-45
2023/06/09 04:20:43;;;;;;;16.77;5.97;;;;;;;;;;5015608;28;20133;-44
2023/06/09 04:23:11;;;;;;;17.35;6.03;;;;;;;;;;4992903;28;20325;-44
2023/06/09 04:25:39;;;;;;;15.70;6.67;;;;;;;;;;4995167;28;20068;-46
2023/06/09 04:28:08;;;;;;;14.73;6.57;;;;;;;;;;5000540;28;20042;-46
2023/06/09 04:30:38;;;;;;;21.13;6.30;;;;;;;;;;4988207;28;20110;-45
2023/06/09 04:33:07;;;;;;;18.08;6.50;;;;;;;;;;4984424;28;20317;-44
2023/06/09 04:35:35;;;;;;;19.92;6.53;;;;;;;;;;4999254;28;20045;-45
2023/06/09 04:38:03;;;;;;;15.13;6.03;;;;;;;;;;5000056;28;20407;-44
2023/06/09 04:40:31;;;;;;;18.13;6.40;;;;;;;;;;5009848;28;20408;-46
2023/06/09 04:43:01;;;;;;;22.98;7.38;;;;;;;;;;4992146;28;20131;-44
2023/06/09 04:45:34;;;;;;;24.45;7.45;;;;;;;;;;5002545;28;20045;-44
2023/06/09 04:48:03;;;;;;;20.35;7.10;;;;;;;;;;4994590;28;20052;-44
2023/06/09 04:50:33;;;;;;;16.60;5.83;;;;;;;;;;4997169;28;20076;-44
2023/06/09 04:53:03;;;;;;;15.65;6.70;;;;;;;;;;4994071;28;20904;-45
2023/06/09 04:55:33;;;;;;;18.85;6.53;;;;;;;;;;4995474;28;20034;-45
2023/06/09 04:58:01;;;;;;;19.10;6.60;;;;;;;;;;5002988;28;20056;-45
2023/06/09 05:00:29;;;;;;;19.20;6.32;;;;;;;;;;4985650;28;20041;-44
2023/06/09 05:02:58;;;;;;;22.07;6.73;;;;;;;;;;5005471;28;20042;-44
2023/06/09 05:05:26;;;;;;;22.52;6.55;;;;;;;;;;4996336;28;20037;-47
2023/06/09 05:07:55;;;;;;;18.88;6.38;;;;;;;;;;4982768;28;20046;-45
2023/06/09 05:10:23;;;;;;;16.15;6.15;;;;;;;;;;5011709;28;20037;-46
2023/06/09 05:12:51;;;;;;;16.38;5.82;;;;;;;;;;5025710;28;20580;-44
2023/06/09 05:15:19;;;;;;;16.90;6.00;;;;;;;;;;5017982;28;20044;-44
2023/06/09 05:17:47;;;;;;;23.88;6.40;;;;;;;;;;5018344;28;20033;-44
2023/06/09 05:20:15;;;;;;;19.25;6.93;;;;;;;;;;5007951;28;20633;-46
2023/06/09 05:22:43;;;;;;;18.30;5.65;;;;;;;;;;5002372;28;20041;-45
2023/06/09 05:25:13;;;;;;;15.45;5.57;;;;;;;;;;5016787;28;20135;-45
2023/06/09 05:27:44;;;;;;;14.93;5.77;;;;;;;;;;5018188;28;20048;-45
2023/06/09 05:30:12;;;;;;;22.52;6.50;;;;;;;;;;5024116;28;20202;-45
2023/06/09 05:32:40;;;;;;;13.60;5.05;;;;;;;;;;4990978;28;20041;-46
2023/06/09 05:35:08;;;;;;;19.67;6.15;;;;;;;;;;5023800;28;20048;-44
2023/06/09 05:37:40;;;;;;;14.85;6.68;;;;;;;;;;5006802;28;20517;-43
2023/06/09 05:40:08;;;;;;;15.17;5.53;;;;;;;;;;5012933;28;20242;-45
2023/06/09 05:42:38;;;;;;;18.65;6.00;;;;;;;;;;5012716;28;21022;-47
2023/06/09 05:45:07;;;;;;;19.92;6.13;;;;;;;;;;5021668;28;20514;-44
2023/06/09 05:47:35;;;;;;;14.20;5.53;;;;;;;;;;5018002;28;20037;-44
2023/06/09 05:50:03;;;;;;;12.43;5.30;;;;;;;;;;5031680;28;20056;-44
2023/06/09 05:52:31;;;;;;;22.83;6.33;;;;;;;;;;5005116;28;20052;-46
2023/06/09 05:55:00;;;;;;;19.35;5.50;;;;;;;;;;5016057;28;20122;-46
2023/06/09 05:57:29;;;;;;;19.45;6.22;;;;;;;;;;5018546;28;20559;-45
2023/06/09 05:59:59;;;;;;;18.48;5.82;;;;;;;;;;5031152;28;20045;-46
2023/06/09 06:02:27;;;;;;;17.20;5.03;;;;;;;;;;5005215;28;20051;-45
2023/06/09 06:04:55;;;;;;;12.07;5.00;;;;;;;;;;5025190;28;20091;-45
2023/06/09 06:07:23;;;;;;;12.50;5.20;;;;;;;;;;5017339;28;20136;-44
2023/06/09 06:09:51;;;;;;;15.05;4.75;;;;;;;;;;5026734;28;20053;-47
2023/06/09 06:12:18;;;;;;;19.40;5.82;;;;;;;;;;5013126;28;20029;-45
2023/06/09 06:14:46;;;;;;;20.75;6.25;;;;;;;;;;5011986;28;20439;-45
2023/06/09 06:17:15;;;;;;;16.60;5.50;;;;;;;;;;5009895;28;20045;-44
2023/06/09 06:19:45;;;;;;;19.58;5.22;;;;;;;;;;5021115;28;20040;-44
2023/06/09 06:22:13;;;;;;;17.55;5.00;;;;;;;;;;5022556;28;20186;-46
2023/06/09 06:24:41;;;;;;;16.85;5.30;;;;;;;;;;5013932;28;20041;-44
2023/06/09 06:27:09;;;;;;;17.95;5.72;;;;;;;;;;5019035;28;20037;-45
2023/06/09 06:29:38;;;;;;;15.13;5.47;;;;;;;;;;5023679;28;20044;-44
2023/06/09 06:32:07;;;;;;;22.08;5.38;;;;;;;;;;5008231;28;20049;-45
2023/06/09 06:34:36;;;;;;;19.83;5.68;;;;;;;;;;5024204;28;20044;-47
2023/06/09 06:37:04;;;;;;;19.85;6.18;;;;;;;;;;5028438;28;20413;-44
2023/06/09 06:39:32;;;;;;;16.27;5.68;;;;;;;;;;5013477;28;20040;-46
2023/06/09 06:42:00;;;;;;;13.67;5.03;;;;;;;;;;5025556;28;20045;-48
2023/06/09 06:44:28;;;;;;;17.55;5.95;;;;;;;;;;5014805;28;20055;-49
2023/06/09 06:46:56;;;;;;;20.10;5.25;;;;;;;;;;5006034;28;20528;-43
2023/06/09 06:49:25;;;;;;;17.02;6.05;;;;;;;;;;5018284;28;20416;-46
2023/06/09 06:51:54;;;;;;;20.60;5.47;;;;;;;;;;5011615;28;20056;-45
2023/06/09 06:54:22;;;;;;;15.87;5.57;;;;;;;;;;5007852;28;20037;-50
2023/06/09 06:56:50;;;;;;;15.57;5.72;;;;;;;;;;5021579;28;20044;-47
2023/06/09 06:59:17;;;;;;;13.10;4.55;;;;;;;;;;5021054;28;20037;-44
2023/06/09 07:01:45;;;;;;;10.85;4.97;;;;;;;;;;5031114;28;20049;-47
2023/06/09 07:04:13;;;;;;;17.75;5.70;;;;;;;;;;5001457;28;20039;-45
2023/06/09 07:06:41;;;;;;;18.70;5.40;;;;;;;;;;5033331;28;20041;-45
2023/06/09 07:09:12;;;;;;;15.65;5.50;;;;;;;;;;5034184;28;20506;-47
2023/06/09 07:11:44;;;;;;;15.15;5.05;;;;;;;;;;5011755;28;20049;-47
2023/06/09 07:14:11;;;;;;;15.00;5.35;;;;;;;;;;5019806;28;20504;-44
2023/06/09 07:16:42;;;;;;;14.93;4.93;;;;;;;;;;5019260;28;20394;-46
2023/06/09 07:19:10;;;;;;;14.33;5.00;;;;;;;;;;5022447;28;20045;-45
2023/06/09 07:21:37;;;;;;;16.33;5.15;;;;;;;;;;5023625;28;20049;-44
2023/06/09 07:24:05;;;;;;;14.20;5.10;;;;;;;;;;5023468;28;20049;-47
2023/06/09 07:26:35;;;;;;;16.85;5.60;;;;;;;;;;5018819;28;20048;-43
2023/06/09 07:29:03;;;;;;;16.13;4.78;;;;;;;;;;5001034;28;20132;-47
2023/06/09 07:31:31;;;;;;;17.77;5.37;;;;;;;;;;5024870;28;20098;-46
2023/06/09 07:33:58;;;;;;;16.90;5.15;;;;;;;;;;5016160;28;20247;-44
2023/06/09 07:36:29;;;;;;;13.90;4.82;;;;;;;;;;5021404;28;20040;-44
2023/06/09 07:38:57;;;;;;;14.50;4.88;;;;;;;;;;4995583;28;20609;-46
2023/06/09 07:41:28;;;;;;;12.63;4.97;;;;;;;;;;5020621;28;20099;-45
2023/06/09 07:43:57;;;;;;;13.90;4.80;;;;;;;;;;5014244;28;20499;-46
2023/06/09 07:46:25;;;;;;;15.80;4.78;;;;;;;;;;5028429;28;20120;-46
2023/06/09 07:48:54;;;;;;;11.98;4.30;;;;;;;;;;5015645;28;20040;-47
2023/06/09 07:51:21;;;;;;;17.35;5.13;;;;;;;;;;5020670;28;20039;-43
2023/06/09 07:53:49;;;;;;;16.90;4.75;;;;;;;;;;5001077;28;20052;-46
2023/06/09 07:56:18;;;;;;;14.87;5.13;;;;;;;;;;5020571;28;20124;-46
2023/06/09 07:58:46;;;;;;;14.40;5.00;;;;;;;;;;5023346;28;20048;-44
2023/06/09 08:01:15;;;;;;;14.65;5.15;;;;;;;;;;5034855;28;20059;-45
2023/06/09 08:03:43;;;;;;;19.48;5.82;;;;;;;;;;5023196;28;20037;-45
2023/06/09 08:06:11;;;;;;;19.23;5.60;;;;;;;;;;5005296;28;20569;-44
2023/06/09 08:08:39;;;;;;;15.53;5.30;;;;;;;;;;4997173;28;20064;-43
2023/06/09 08:11:07;;;;;;;12.60;4.70;;;;;;;;;;5018530;28;20164;-44
2023/06/09 08:13:34;;;;;;;15.15;4.93;;;;;;;;;;5015544;28;20663;-44
2023/06/09 08:16:02;;;;;;;13.55;4.80;;;;;;;;;;5014427;28;20519;-45
2023/06/09 08:18:31;;;;;;;12.73;4.63;;;;;;;;;;5003064;28;20513;-45
2023/06/09 08:20:59;;;;;;;17.07;5.20;;;;;;;;;;5021900;28;20090;-45
2023/06/09 08:23:27;;;;;;;14.90;5.22;;;;;;;;;;5018772;28;20047;-46
2023/06/09 08:25:55;;;;;;;13.85;5.38;;;;;;;;;;5019662;28;20045;-48
2023/06/09 08:28:24;;;;;;;12.07;5.18;;;;;;;;;;5024246;28;20510;-46
2023/06/09 08:30:52;;;;;;;15.50;5.80;;;;;;;;;;5017254;28;20541;-46
2023/06/09 08:33:21;;;;;;;12.43;4.57;;;;;;;;;;5013632;28;20063;-49
2023/06/09 08:35:50;;;;;;;16.67;5.00;;;;;;;;;;5019317;28;20402;-45
2023/06/09 08:38:18;;;;;;;15.88;4.57;;;;;;;;;;5023408;28;20445;-44
2023/06/09 08:40:50;;;;;;;17.33;5.88;;;;;;;;;;5000714;28;20037;-46
2023/06/09 08:43:18;;;;;;;16.05;6.10;;;;;;;;;;5004933;28;20033;-48
2023/06/09 08:45:46;;;;;;;13.73;4.73;;;;;;;;;;5020307;28;20515;-47
2023/06/09 08:48:16;;;;;;;16.52;5.72;;;;;;;;;;5013312;28;20548;-46
2023/06/09 08:50:44;;;;;;;18.50;5.72;;;;;;;;;;5014195;28;20044;-45
2023/06/09 08:53:13;;;;;;;16.92;5.13;;;;;;;;;;5027138;28;20095;-45
2023/06/09 08:55:46;;;;;;;14.15;5.60;;;;;;;;;;4994248;28;20471;-47
2023/06/09 08:58:14;;;;;;;15.77;5.00;;;;;;;;;;5017335;28;20519;-44
2023/06/09 09:00:42;;;;;;;18.85;5.68;;;;;;;;;;5026043;28;20089;-45
2023/06/09 09:03:10;;;;;;;15.77;5.47;;;;;;;;;;5014709;28;20124;-46
2023/06/09 09:05:38;;;;;;;14.80;5.90;;;;;;;;;;5001198;28;20033;-47
2023/06/09 09:08:07;;;;;;;16.67;5.30;;;;;;;;;;4992118;28;20044;-45
2023/06/09 09:10:38;;;;;;;16.43;6.07;;;;;;;;;;5021602;28;20136;-45
2023/06/09 09:13:08;;;;;;;17.13;5.40;;;;;;;;;;5017344;28;20040;-44
2023/06/09 09:15:37;;;;;;;14.35;5.60;;;;;;;;;;4998523;28;20528;-46
2023/06/09 09:18:07;;;;;;;13.77;5.40;;;;;;;;;;5012870;28;20052;-44
2023/06/09 09:20:36;;;;;;;14.35;5.03;;;;;;;;;;5014284;28;20314;-44
2023/06/09 09:23:06;;;;;;;16.60;6.23;;;;;;;;;;5027442;28;20037;-45
2023/06/09 09:25:34;;;;;;;15.18;5.53;;;;;;;;;;5014813;28;20041;-46
2023/06/09 09:28:04;;;;;;;17.75;5.57;;;;;;;;;;5014906;28;20045;-47
2023/06/09 09:30:42;;;;;;;14.02;5.85;;;;;;;;;;5011717;28;20043;-46
2023/06/09 09:33:10;;;;;;;17.55;6.47;;;;;;;;;;4997193;28;20037;-46
2023/06/09 09:35:38;;;;;;;15.70;5.87;;;;;;;;;;5027596;28;20029;-45
2023/06/09 09:38:11;;;;;;;13.93;6.28;;;;;;;;;;4986394;28;20120;-44
2023/06/09 09:40:41;;;;;;;15.30;6.05;;;;;;;;;;5014328;28;20037;-43
2023/06/09 09:43:11;;;;;;;15.32;5.78;;;;;;;;;;5025092;28;20045;-46
2023/06/09 09:45:40;;;;;;;14.93;6.30;;;;;;;;;;5008292;28;20048;-45
2023/06/09 09:48:09;;;;;;;13.23;6.20;;;;;;;;;;5020682;28;20514;-48
2023/06/09 09:50:37;;;;;;;18.50;7.03;;;;;;;;;;5007398;28;20033;-47
2023/06/09 09:53:05;;;;;;;20.00;6.72;;;;;;;;;;5015687;28;20041;-48
2023/06/09 09:55:34;;;;;;;17.45;5.63;;;;;;;;;;4990797;28;20391;-45
2023/06/09 09:58:05;;;;;;;18.63;6.78;;;;;;;;;;5011770;28;20496;-46
2023/06/09 10:00:39;;;;;;;18.30;5.80;;;;;;;;;;5008110;28;20041;-46
2023/06/09 10:03:07;;;;;;;15.02;5.97;;;;;;;;;;5018463;28;20492;-45
2023/06/09 10:05:37;;;;;;;20.30;6.18;;;;;;;;;;5020250;28;20037;-45
2023/06/09 10:08:06;;;;;;;15.25;5.18;;;;;;;;;;4993524;28;20043;-46
2023/06/09 10:10:34;;;;;;;17.42;6.65;;;;;;;;;;5025090;28;20109;-44
2023/06/09 10:13:03;;;;;;;12.87;4.07;;;;;;;;;;4997549;28;20037;-46
2023/06/09 10:15:34;;;;;;;11.82;5.35;;;;;;;;;;5018440;28;20064;-45
2023/06/09 10:18:04;;;;;;;17.10;5.15;;;;;;;;;;4998413;28;20569;-45
2023/06/09 10:20:32;;;;;;;16.25;6.70;;;;;;;;;;5021203;28;20041;-45
2023/06/09 10:23:00;;;;;;;14.52;6.07;;;;;;;;;;5015885;28;20509;-45
2023/06/09 10:25:29;;;;;;;15.40;6.47;;;;;;;;;;5001903;28;20158;-44
2023/06/09 10:27:57;;;;;;;16.10;6.85;;;;;;;;;;5022016;28;20041;-47
2023/06/09 10:30:25;;;;;;;16.73;7.18;;;;;;;;;;5014057;28;20041;-44
2023/06/09 10:32:55;;;;;;;16.42;6.07;;;;;;;;;;5019473;28;20041;-45
2023/06/09 10:35:27;;;;;;;12.38;5.75;;;;;;;;;;5029811;28;20750;-47
2023/06/09 10:38:00;;;;;;;12.63;5.87;;;;;;;;;;5022799;28;20087;-47
2023/06/09 10:40:30;;;;;;;16.27;6.35;;;;;;;;;;5024329;28;20041;-47
2023/06/09 10:43:09;;;;;;;15.65;6.18;;;;;;;;;;4995514;28;20437;-46
2023/06/09 10:45:51;;;;;;;19.95;7.30;;;;;;;;;;5020809;28;20517;-51
2023/06/09 10:48:37;;;;;;;13.13;5.78;;;;;;;;;;5029536;28;20094;-46
2023/06/09 10:51:25;;;;;;;10.80;5.00;;;;;;;;;;5025141;28;20033;-48
2023/06/09 10:54:12;;;;;;;16.77;7.32;;;;;;;;;;4994581;28;20055;-48
2023/06/09 10:56:42;;;;;;;18.38;6.10;;;;;;;;;;5027397;28;20045;-46
2023/06/09 10:59:31;;;;;;;13.10;5.72;;;;;;;;;;5012767;28;20129;-47
2023/06/09 11:02:21;;;;;;;15.98;7.28;;;;;;;;;;5007041;28;20053;-49
2023/06/09 11:04:50;;;;;;;11.33;5.10;;;;;;;;;;5023167;28;20049;-48
2023/06/09 11:07:19;;;;;;;14.70;6.47;;;;;;;;;;5016695;28;20045;-46
2023/06/09 11:10:05;;;;;;;13.60;6.80;;;;;;;;;;5003751;28;20060;-48
2023/06/09 11:12:45;;;;;;;13.77;5.80;;;;;;;;;;5010192;28;20137;-48
2023/06/09 11:15:15;;;;;;;17.73;7.03;;;;;;;;;;5011673;28;20393;-48
2023/06/09 11:17:44;;;;;;;14.80;5.90;;;;;;;;;;5009834;28;20859;-44
2023/06/09 11:20:14;;;;;;;16.10;7.32;;;;;;;;;;5010199;28;20063;-47
2023/06/09 11:23:00;;;;;;;22.60;7.55;;;;;;;;;;5014362;28;20115;-44
2023/06/09 11:25:34;;;;;;;14.15;6.65;;;;;;;;;;5027201;28;20056;-47
2023/06/09 11:28:19;;;;;;;16.75;6.40;;;;;;;;;;5013729;28;20163;-47
2023/06/09 11:31:01;;;;;;;12.83;6.60;;;;;;;;;;5002822;28;20396;-48
2023/06/09 11:33:48;;;;;;;21.95;7.35;;;;;;;;;;5013177;28;20553;-45
2023/06/09 11:36:18;;;;;;;17.60;7.07;;;;;;;;;;5019094;28;20048;-46
2023/06/09 11:38:46;;;;;;;14.18;6.40;;;;;;;;;;4997878;28;20242;-45
2023/06/09 11:41:14;;;;;;;11.50;5.40;;;;;;;;;;5017751;28;20047;-44
2023/06/09 11:43:52;;;;;;;13.13;5.87;;;;;;;;;;5024922;28;20033;-46
2023/06/09 11:46:20;;;;;;;12.75;5.70;;;;;;;;;;5027445;28;20570;-46
2023/06/09 11:48:58;;;;;;;13.82;5.30;;;;;;;;;;4997340;28;20041;-47
2023/06/09 11:51:25;;;;;;;12.95;6.03;;;;;;;;;;5023152;28;20133;-48
2023/06/09 11:53:53;;;;;;;10.25;5.60;;;;;;;;;;5008830;28;20045;-44
2023/06/09 11:56:22;;;;;;;10.83;4.90;;;;;;;;;;4994645;28;20505;-47
2023/06/09 11:58:55;;;;;;;11.55;5.95;;;;;;;;;;5008852;28;20511;-45
2023/06/09 12:01:23;;;;;;;12.95;5.10;;;;;;;;;;5022586;28;20056;-44
2023/06/09 12:03:51;;;;;;;16.38;6.03;;;;;;;;;;5011571;28;20049;-44
2023/06/09 12:06:18;;;;;;;15.32;6.13;;;;;;;;;;5021744;28;20044;-47
2023/06/09 12:08:46;;;;;;;15.37;6.17;;;;;;;;;;5012912;28;22194;-46
2023/06/09 12:11:17;;;;;;;15.43;6.57;;;;;;;;;;5032393;28;20048;-45
2023/06/09 12:13:45;;;;;;;14.95;7.32;;;;;;;;;;5020953;28;20052;-44
2023/06/09 12:16:15;;;;;;;18.02;7.35;;;;;;;;;;5028058;28;20812;-46
2023/06/09 12:18:42;;;;;;;14.48;6.95;;;;;;;;;;5013802;28;20088;-45
2023/06/09 12:21:10;;;;;;;16.60;7.63;;;;;;;;;;5026365;28;22535;-48
2023/06/09 12:23:39;;;;;;;19.80;7.25;;;;;;;;;;5013679;28;20044;-45
2023/06/09 12:26:08;;;;;;;16.20;7.28;;;;;;;;;;5020769;28;20103;-44
2023/06/09 12:28:36;;;;;;;17.55;7.82;;;;;;;;;;5008593;28;20044;-45
2023/06/09 12:31:11;;;;;;;15.50;7.68;;;;;;;;;;5006129;28;20040;-45
2023/06/09 12:33:46;;;;;;;16.77;6.93;;;;;;;;;;5014623;28;20041;-49
2023/06/09 12:36:14;;;;;;;14.75;6.43;;;;;;;;;;5018783;28;20041;-44
2023/06/09 12:38:43;;;;;;;15.05;6.38;;;;;;;;;;5002085;28;20430;-47
2023/06/09 12:41:12;;;;;;;12.95;6.18;;;;;;;;;;5002019;28;20037;-44
2023/06/09 12:43:43;;;;;;;13.55;4.72;;;;;;;;;;5013026;28;20060;-49
2023/06/09 12:46:11;;;;;;;16.27;6.50;;;;;;;;;;5017806;28;20036;-47
2023/06/09 12:48:53;;;;;;;15.18;6.57;;;;;;;;;;5000652;28;20043;-45
2023/06/09 12:51:23;;;;;;;12.38;4.93;;;;;;;;;;5012596;28;20612;-45
2023/06/09 12:53:52;;;;;;;14.52;6.22;;;;;;;;;;5015581;28;20038;-45
2023/06/09 12:56:24;;;;;;;13.55;7.10;;;;;;;;;;5018015;28;20044;-46
2023/06/09 12:58:53;;;;;;;14.73;6.70;;;;;;;;;;5021738;28;20055;-44
2023/06/09 13:01:23;;;;;;;15.73;7.32;;;;;;;;;;5000239;28;20038;-48
2023/06/09 13:03:51;;;;;;;16.08;6.75;;;;;;;;;;5015230;28;20033;-46
2023/06/09 13:06:19;;;;;;;16.58;7.72;;;;;;;;;;5016739;28;20433;-44
2023/06/09 13:08:49;;;;;;;13.07;6.28;;;;;;;;;;5013442;28;20049;-48
2023/06/09 13:11:16;;;;;;;16.80;7.23;;;;;;;;;;5019040;28;20033;-45
2023/06/09 13:13:44;;;;;;;14.40;7.45;;;;;;;;;;5014469;28;21848;-47
2023/06/09 13:16:12;;;;;;;12.95;6.53;;;;;;;;;;5023720;28;20040;-44
2023/06/09 13:18:41;;;;;;;19.52;7.40;;;;;;;;;;5016059;28;20428;-45
2023/06/09 13:21:09;;;;;;;14.30;5.97;;;;;;;;;;5024819;28;20126;-47
2023/06/09 13:23:37;;;;;;;13.93;5.77;;;;;;;;;;5018130;28;20051;-48
2023/06/09 13:26:06;;;;;;;13.38;6.82;;;;;;;;;;5021384;28;20131;-46
2023/06/09 13:28:34;;;;;;;17.60;7.00;;;;;;;;;;5014014;28;20120;-47
2023/06/09 13:31:01;;;;;;;14.82;6.30;;;;;;;;;;5009257;28;20045;-47
2023/06/09 13:33:29;;;;;;;13.75;6.07;;;;;;;;;;4995995;28;20126;-46
2023/06/09 13:35:57;;;;;;;15.73;6.87;;;;;;;;;;5020817;28;20052;-46
2023/06/09 13:38:25;;;;;;;16.02;7.60;;;;;;;;;;5013672;28;20060;-45
2023/06/09 13:40:53;;;;;;;16.08;7.82;;;;;;;;;;5020032;28;21012;-46
2023/06/09 13:43:29;;;;;;;12.07;7.00;;;;;;;;;;5016605;28;20037;-46
2023/06/09 13:46:00;;;;;;;13.80;7.07;;;;;;;;;;4991521;28;20041;-44
2023/06/09 13:48:31;;;;;;;12.13;6.77;;;;;;;;;;5012806;28;20040;-45
2023/06/09 13:50:59;;;;;;;14.40;7.20;;;;;;;;;;5002154;28;20065;-45
2023/06/09 13:53:28;;;;;;;15.63;6.47;;;;;;;;;;5021773;28;20052;-45
2023/06/09 13:55:55;;;;;;;13.80;7.03;;;;;;;;;;5010058;28;20048;-45
2023/06/09 13:58:23;;;;;;;17.38;7.22;;;;;;;;;;5023322;28;20037;-46
2023/06/09 14:00:53;;;;;;;13.37;7.23;;;;;;;;;;5009819;28;20454;-46
2023/06/09 14:03:21;;;;;;;14.15;7.32;;;;;;;;;;5021539;28;20044;-48
2023/06/09 14:05:49;;;;;;;17.05;6.70;;;;;;;;;;5029490;28;20822;-50
2023/06/09 14:08:17;;;;;;;16.20;7.03;;;;;;;;;;5018675;28;20044;-48
2023/06/09 14:10:44;;;;;;;14.70;7.50;;;;;;;;;;5023926;28;20037;-48
2023/06/09 14:13:13;;;;;;;12.93;7.17;;;;;;;;;;5014514;28;20128;-47
2023/06/09 14:15:45;;;;;;;14.70;7.07;;;;;;;;;;5004730;28;20406;-46
2023/06/09 14:18:15;;;;;;;15.75;7.32;;;;;;;;;;5027065;28;20036;-45
2023/06/09 14:20:42;;;;;;;14.07;7.18;;;;;;;;;;5019997;28;20408;-45
2023/06/09 14:23:11;;;;;;;13.57;6.85;;;;;;;;;;5013422;28;20051;-45
2023/06/09 14:25:39;;;;;;;15.37;6.73;;;;;;;;;;5027128;28;20101;-46
2023/06/09 14:28:07;;;;;;;18.83;7.20;;;;;;;;;;5024158;28;20411;-44
2023/06/09 14:30:35;;;;;;;17.58;7.70;;;;;;;;;;5022157;28;20047;-44
2023/06/09 14:33:03;;;;;;;14.70;7.30;;;;;;;;;;5021063;28;20047;-45
2023/06/09 14:35:32;;;;;;;19.13;8.15;;;;;;;;;;5024880;28;20043;-46
2023/06/09 14:38:01;;;;;;;19.13;7.10;;;;;;;;;;5016164;28;20052;-47
2023/06/09 14:40:34;;;;;;;16.73;7.47;;;;;;;;;;5026461;28;20101;-44
2023/06/09 14:43:04;;;;;;;13.80;7.05;;;;;;;;;;5003033;28;20442;-46
2023/06/09 14:45:33;;;;;;;15.15;7.80;;;;;;;;;;5021245;28;20041;-45